Shin Mei Maru — JG5617 — position and weather

sailwx.info

Track history (hours):
 
Tides and Currents Weather Stations Pressure Air Temp Water Temp Dewpoint Dewpoint Depression Visibility Wind Speed Wind Dir Waves Ship Positions

Shin Mei Maru

Last reported at 2017-Oct-19 00:00 UTC. Time now 2017-Oct-19 00:11 UTC.
Position N 34°32' E 135°15'.

Length 160 m; draft 6.9 m.

Type: Cargo ship. MMSI: 431100922.

Date/timePositionNaut miles runAvg speedWind from/ knotsBaromVisibWave heightAir tempDewpointWater temp
2017-Oct-19 00:00N 34°32' E 135°15'1019.2
2017-Oct-18 23:30N 34°25' E 135°07'1019.6
2017-Oct-18 23:00N 34°17' E 134°59'1020.5
2017-Oct-18 22:31N 34°07' E 134°59'1019.4
2017-Oct-18 22:00N 33°58' E 134°60'22816.9
2017-Oct-18 08:32N 34°57' E 139°27'317.8
2017-Oct-18 08:22N 34°59' E 139°29'718.7
2017-Oct-18 08:00N 35°03' E 139°36'919.2
2017-Oct-18 07:31N 35°09' E 139°45'714.6
2017-Oct-18 07:01N 35°16' E 139°46'714.1
2017-Oct-18 06:30N 35°23' E 139°42'918.9
2017-Oct-18 06:01N 35°29' E 139°50'714.5
2017-Oct-18 05:30N 35°36' E 139°47'2 0.2
2017-Oct-17 22:13N 35°38' E 139°46'0 0.0
2017-Oct-17 22:00N 35°38' E 139°46'2 3.1
2017-Oct-17 21:31N 35°36' E 139°46'815.4
2017-Oct-17 21:00N 35°30' E 139°52'816.1
2017-Oct-17 20:30N 35°24' E 139°46'611.4
2017-Oct-17 20:01N 35°18' E 139°44'611.6
2017-Oct-17 19:30N 35°13' E 139°47'918.1
2017-Oct-17 19:00N 35°04' E 139°46'815.7
2017-Oct-17 18:30N 34°56' E 139°44'1013.9
2017-Oct-17 17:48N 34°51' E 139°53'617.1
2017-Oct-17 17:27N 34°52' E 140°01'  
2017-Oct-13 17:43N 35°04' E 140°25'1917.2
2017-Oct-13 16:36N 34°54' E 140°05'217.9
2017-Oct-13 16:29N 34°53' E 140°03'1018.7
2017-Oct-13 15:57N 34°48' E 139°52'248 8.6
2017-Oct-12 11:07N 33°57' E 134°58'217.2
2017-Oct-12 11:01N 33°59' E 134°58'917.5
2017-Oct-12 10:31N 34°08' E 134°58'1018.2
2017-Oct-12 09:59N 34°17' E 134°59'817.4
2017-Oct-12 09:30N 34°25' E 135°03'918.1
2017-Oct-12 09:00N 34°30' E 135°12'917.6
2017-Oct-12 08:31N 34°35' E 135°20'4 7.5
2017-Oct-12 07:59N 34°37' E 135°25'0 0.0
2017-Oct-12 07:30N 34°37' E 135°25'0 0.0
2017-Oct-12 05:31N 34°37' E 135°25'0 0.0
2017-Oct-12 05:07N 34°37' E 135°25'0 0.0
2017-Oct-12 04:55N 34°37' E 135°25'0 0.0
2017-Oct-12 02:49N 34°37' E 135°25'0 0.0
2017-Oct-12 00:44N 34°37' E 135°25'0 0.7
2017-Oct-12 00:30N 34°37' E 135°25'814.9
2017-Oct-12 00:00N 34°33' E 135°17'917.6
2017-Oct-11 23:29N 34°27' E 135°09'917.9
2017-Oct-11 23:00N 34°20' E 135°02'816.4
2017-Oct-11 22:30N 34°13' E 134°58'917.5
2017-Oct-11 22:00N 34°04' E 134°57'25510.3
2017-Oct-10 21:14N 35°36' E 139°47'1014.8
2017-Oct-10 20:34N 35°26' E 139°49'119.2
2017-Oct-10 20:30N 35°26' E 139°48'713.8
2017-Oct-10 20:00N 35°19' E 139°44'612.8
2017-Oct-10 19:30N 35°13' E 139°47'917.4
2017-Oct-10 19:00N 35°05' E 139°46'816.3
2017-Oct-10 18:30N 34°57' E 139°44'915.3
2017-Oct-10 17:56N 34°51' E 139°52'818.1
2017-Oct-10 17:30N 34°54' E 140°01'  
Track history (hours):
 
Tides and Currents Weather Stations Pressure Air Temp Water Temp Dewpoint Dewpoint Depression Visibility Wind Speed Wind Dir Waves Ship Positions

Shin Mei Maru

Last reported at 2017-Oct-19 00:00 UTC. Time now 2017-Oct-19 00:11 UTC.
Position N 34°32' E 135°15'.

Length 160 m; draft 6.9 m.

Type: Cargo ship. MMSI: 431100922.

Date/timePositionNaut miles runAvg speedWind from/ knotsBaromVisibWave heightAir tempDewpointWater temp
2017-Oct-19 00:00N 34°32' E 135°15'1019.2
2017-Oct-18 23:30N 34°25' E 135°07'1019.6
2017-Oct-18 23:00N 34°17' E 134°59'1020.5
2017-Oct-18 22:31N 34°07' E 134°59'1019.4
2017-Oct-18 22:00N 33°58' E 134°60'22816.9
2017-Oct-18 08:32N 34°57' E 139°27'317.8
2017-Oct-18 08:22N 34°59' E 139°29'718.7
2017-Oct-18 08:00N 35°03' E 139°36'919.2
2017-Oct-18 07:31N 35°09' E 139°45'714.6
2017-Oct-18 07:01N 35°16' E 139°46'714.1
2017-Oct-18 06:30N 35°23' E 139°42'918.9
2017-Oct-18 06:01N 35°29' E 139°50'714.5
2017-Oct-18 05:30N 35°36' E 139°47'2 0.2
2017-Oct-17 22:13N 35°38' E 139°46'0 0.0
2017-Oct-17 22:00N 35°38' E 139°46'2 3.1
2017-Oct-17 21:31N 35°36' E 139°46'815.4
2017-Oct-17 21:00N 35°30' E 139°52'816.1
2017-Oct-17 20:30N 35°24' E 139°46'611.4
2017-Oct-17 20:01N 35°18' E 139°44'611.6
2017-Oct-17 19:30N 35°13' E 139°47'918.1
2017-Oct-17 19:00N 35°04' E 139°46'815.7
2017-Oct-17 18:30N 34°56' E 139°44'1013.9
2017-Oct-17 17:48N 34°51' E 139°53'617.1
2017-Oct-17 17:27N 34°52' E 140°01'  
2017-Oct-13 17:43N 35°04' E 140°25'1917.2
2017-Oct-13 16:36N 34°54' E 140°05'217.9
2017-Oct-13 16:29N 34°53' E 140°03'1018.7
2017-Oct-13 15:57N 34°48' E 139°52'248 8.6
2017-Oct-12 11:07N 33°57' E 134°58'217.2
2017-Oct-12 11:01N 33°59' E 134°58'917.5
2017-Oct-12 10:31N 34°08' E 134°58'1018.2
2017-Oct-12 09:59N 34°17' E 134°59'817.4
2017-Oct-12 09:30N 34°25' E 135°03'918.1
2017-Oct-12 09:00N 34°30' E 135°12'917.6
2017-Oct-12 08:31N 34°35' E 135°20'4 7.5
2017-Oct-12 07:59N 34°37' E 135°25'0 0.0
2017-Oct-12 07:30N 34°37' E 135°25'0 0.0
2017-Oct-12 05:31N 34°37' E 135°25'0 0.0
2017-Oct-12 05:07N 34°37' E 135°25'0 0.0
2017-Oct-12 04:55N 34°37' E 135°25'0 0.0
2017-Oct-12 02:49N 34°37' E 135°25'0 0.0
2017-Oct-12 00:44N 34°37' E 135°25'0 0.7
2017-Oct-12 00:30N 34°37' E 135°25'814.9
2017-Oct-12 00:00N 34°33' E 135°17'917.6
2017-Oct-11 23:29N 34°27' E 135°09'917.9
2017-Oct-11 23:00N 34°20' E 135°02'816.4
2017-Oct-11 22:30N 34°13' E 134°58'917.5
2017-Oct-11 22:00N 34°04' E 134°57'25510.3
2017-Oct-10 21:14N 35°36' E 139°47'1014.8
2017-Oct-10 20:34N 35°26' E 139°49'119.2
2017-Oct-10 20:30N 35°26' E 139°48'713.8
2017-Oct-10 20:00N 35°19' E 139°44'612.8
2017-Oct-10 19:30N 35°13' E 139°47'917.4
2017-Oct-10 19:00N 35°05' E 139°46'816.3
2017-Oct-10 18:30N 34°57' E 139°44'915.3
2017-Oct-10 17:56N 34°51' E 139°52'818.1
2017-Oct-10 17:30N 34°54' E 140°01'  

Dump ship's entire track history